createdAt,value
2018-07-31T00:00:31.736Z,44.17
2018-07-31T00:01:31.747Z,44.56
2018-07-31T00:02:31.757Z,44.56
2018-07-31T00:03:31.797Z,44.75
2018-07-31T00:04:31.771Z,45.12
2018-07-31T00:05:31.789Z,45.24
2018-07-31T00:06:31.786Z,45.04
2018-07-31T00:07:31.793Z,45.02
2018-07-31T00:08:31.801Z,44.83
2018-07-31T00:09:31.817Z,45.14
2018-07-31T00:10:31.881Z,45.04
2018-07-31T00:11:31.838Z,45.24
2018-07-31T00:12:31.837Z,45.24
2018-07-31T00:13:31.847Z,45.04
2018-07-31T00:14:31.852Z,44.85
2018-07-31T00:15:31.860Z,45.14
2018-07-31T00:16:31.875Z,45.14
2018-07-31T00:17:31.885Z,45.24
2018-07-31T00:18:31.889Z,44.95
2018-07-31T00:19:31.897Z,44.85
2018-07-31T00:20:31.901Z,44.65
2018-07-31T00:21:31.929Z,44.85
2018-07-31T00:22:31.919Z,45.24
2018-07-31T00:23:31.928Z,45.14
2018-07-31T00:24:31.937Z,44.85
2018-07-31T00:25:31.947Z,44.95
2018-07-31T00:26:31.950Z,45.04
2018-07-31T00:27:31.962Z,44.95
2018-07-31T00:28:31.967Z,45.04
2018-07-31T00:29:31.978Z,45.04
2018-07-31T00:30:31.985Z,45.04
2018-07-31T00:31:31.995Z,45.07
2018-07-31T00:32:31.995Z,44.87
2018-07-31T00:33:32.008Z,45.04
2018-07-31T00:34:32.016Z,44.95
2018-07-31T00:35:32.024Z,45.17
2018-07-31T00:36:32.041Z,44.97
2018-07-31T00:37:32.044Z,45.07
2018-07-31T00:38:32.052Z,45.26
2018-07-31T00:39:32.064Z,45.26
2018-07-31T00:40:32.072Z,45.17
2018-07-31T00:41:32.076Z,45.36
2018-07-31T00:42:32.087Z,45.26
2018-07-31T00:43:32.094Z,45.26
2018-07-31T00:44:32.105Z,45.45
2018-07-31T00:45:32.107Z,45.17
2018-07-31T00:46:32.123Z,45.36
2018-07-31T00:47:32.129Z,45.45
2018-07-31T00:48:32.145Z,45.17
2018-07-31T00:49:32.145Z,45.26
2018-07-31T00:50:32.158Z,44.97
2018-07-31T00:51:32.162Z,44.97
2018-07-31T00:52:32.170Z,44.97
2018-07-31T00:53:32.181Z,45.07
2018-07-31T00:54:32.188Z,45.07
2018-07-31T00:55:32.196Z,44.97
2018-07-31T00:56:32.207Z,44.97
2018-07-31T00:57:32.213Z,44.97
2018-07-31T00:58:32.223Z,44.87
2018-07-31T00:59:32.234Z,44.87
2018-07-31T01:00:32.238Z,45.17
2018-07-31T01:01:32.250Z,45.17
2018-07-31T01:02:32.254Z,45.26
2018-07-31T01:03:32.268Z,45.07
2018-07-31T01:04:32.270Z,45.07
2018-07-31T01:05:32.284Z,45.26
2018-07-31T01:06:32.287Z,45.26
2018-07-31T01:07:32.300Z,44.97
2018-07-31T01:08:32.304Z,44.97
2018-07-31T01:09:32.319Z,45.17
2018-07-31T01:10:32.322Z,45.07
2018-07-31T01:11:32.334Z,45.17
2018-07-31T01:12:32.342Z,45.17
2018-07-31T01:13:32.351Z,45.17
2018-07-31T01:14:32.360Z,44.97
2018-07-31T01:15:32.364Z,45.07
2018-07-31T01:16:32.379Z,44.97
2018-07-31T01:17:32.392Z,45.07
2018-07-31T01:18:32.396Z,44.78
2018-07-31T01:19:32.403Z,45.07
2018-07-31T01:20:32.412Z,44.97
2018-07-31T01:21:32.420Z,45.07
2018-07-31T01:22:32.432Z,44.97
2018-07-31T01:23:32.436Z,45.07
2018-07-31T01:24:32.445Z,45.17
2018-07-31T01:25:32.454Z,45.26
2018-07-31T01:26:32.466Z,45.17
2018-07-31T01:27:32.475Z,45.07
2018-07-31T01:28:32.485Z,45.26
2018-07-31T01:29:32.487Z,45.26
2018-07-31T01:30:32.502Z,45.14
2018-07-31T01:31:32.503Z,45.14
2018-07-31T01:32:32.515Z,45.34
2018-07-31T01:33:32.521Z,45.53
2018-07-31T01:34:32.528Z,45.62
2018-07-31T01:35:32.541Z,45.43
2018-07-31T01:36:32.551Z,45.62
2018-07-31T01:37:32.558Z,45.72
2018-07-31T01:38:32.564Z,45.43
2018-07-31T01:39:32.576Z,45.53
2018-07-31T01:40:32.589Z,45.72
2018-07-31T01:41:32.593Z,45.82
2018-07-31T01:42:32.599Z,45.82
2018-07-31T01:43:32.609Z,45.82
2018-07-31T01:44:32.619Z,45.82
2018-07-31T01:45:32.622Z,45.43
2018-07-31T01:46:32.634Z,45.82
2018-07-31T01:47:32.643Z,45.62
2018-07-31T01:48:32.651Z,45.53
2018-07-31T01:49:32.657Z,45.43
2018-07-31T01:50:32.666Z,45.43
2018-07-31T01:51:32.707Z,45.53
2018-07-31T01:52:32.686Z,45.82
2018-07-31T01:53:32.692Z,45.92
2018-07-31T01:54:32.701Z,45.92
2018-07-31T01:55:32.708Z,45.72
2018-07-31T01:56:32.720Z,46.11
2018-07-31T01:57:32.728Z,46.11
2018-07-31T01:58:32.736Z,46.41
2018-07-31T01:59:32.781Z,46.98
2018-07-31T02:00:32.752Z,46.21
2018-07-31T02:01:32.765Z,46.31
2018-07-31T02:02:32.774Z,46.89
2018-07-31T02:03:32.784Z,46.89
2018-07-31T02:04:32.796Z,46.69
2018-07-31T02:05:32.797Z,47.08
2018-07-31T02:06:32.807Z,47.28
2018-07-31T02:07:32.845Z,47.08
2018-07-31T02:08:32.821Z,46.86
2018-07-31T02:09:32.836Z,47.08
2018-07-31T02:10:32.843Z,47.74
2018-07-31T02:11:32.845Z,47.93
2018-07-31T02:12:32.856Z,47.83
2018-07-31T02:13:32.865Z,48.03
2018-07-31T02:14:32.872Z,47.93
2018-07-31T02:15:32.881Z,48.22
2018-07-31T02:16:32.890Z,48.13
2018-07-31T02:17:32.895Z,48.03
2018-07-31T02:18:32.903Z,48.42
2018-07-31T02:19:32.917Z,48.13
2018-07-31T02:20:32.929Z,48.32
2018-07-31T02:21:32.945Z,48.32
2018-07-31T02:22:32.941Z,48.42
2018-07-31T02:23:32.952Z,48.22
2018-07-31T02:24:32.954Z,48.13
2018-07-31T02:25:32.963Z,47.83
2018-07-31T02:26:32.977Z,48.03
2018-07-31T02:27:32.982Z,48.22
2018-07-31T02:28:33.021Z,48.13
2018-07-31T02:29:32.995Z,47.93
2018-07-31T02:30:33.007Z,48.22
2018-07-31T02:31:33.021Z,48.25
2018-07-31T02:32:33.021Z,48.22
2018-07-31T02:33:33.034Z,48.73
2018-07-31T02:34:33.036Z,48.05
2018-07-31T02:35:33.049Z,48.05
2018-07-31T02:36:33.056Z,47.96
2018-07-31T02:37:33.064Z,48.13
2018-07-31T02:38:33.077Z,47.93
2018-07-31T02:39:33.087Z,48.35
2018-07-31T02:40:33.090Z,48.03
2018-07-31T02:41:33.096Z,47.93
2018-07-31T02:42:33.109Z,48.25
2018-07-31T02:43:33.123Z,48.15
2018-07-31T02:44:33.125Z,48.03
2018-07-31T02:45:33.129Z,48.52
2018-07-31T02:46:33.137Z,48.52
2018-07-31T02:47:33.149Z,48.42
2018-07-31T02:48:33.158Z,48.35
2018-07-31T02:49:33.164Z,48.54
2018-07-31T02:50:33.172Z,48.44
2018-07-31T02:51:33.182Z,49.12
2018-07-31T02:52:33.192Z,48.93
2018-07-31T02:53:33.199Z,48.83
2018-07-31T02:54:33.210Z,48.93
2018-07-31T02:55:33.216Z,49.22
2018-07-31T02:56:33.222Z,49.41
2018-07-31T02:57:33.231Z,49.00
2018-07-31T02:58:33.241Z,48.90
2018-07-31T02:59:33.252Z,49.00
2018-07-31T03:00:33.256Z,48.80
2018-07-31T03:01:33.262Z,48.90
2018-07-31T03:02:33.273Z,48.90
2018-07-31T03:03:33.286Z,48.71
2018-07-31T03:04:33.290Z,49.29
2018-07-31T03:05:33.296Z,49.29
2018-07-31T03:06:33.309Z,49.10
2018-07-31T03:07:33.321Z,49.10
2018-07-31T03:08:33.321Z,49.29
2018-07-31T03:09:33.330Z,49.19
2018-07-31T03:10:33.338Z,49.29
2018-07-31T03:11:33.354Z,49.00
2018-07-31T03:12:33.357Z,49.49
2018-07-31T03:13:33.372Z,49.39
2018-07-31T03:14:33.384Z,49.39
2018-07-31T03:15:33.388Z,49.68
2018-07-31T03:16:33.396Z,50.16
2018-07-31T03:17:33.399Z,49.58
2018-07-31T03:18:33.406Z,49.39
2018-07-31T03:19:33.416Z,49.39
2018-07-31T03:20:33.419Z,49.00
2018-07-31T03:21:33.431Z,49.49
2018-07-31T03:22:33.439Z,49.49
2018-07-31T03:23:33.456Z,49.49
2018-07-31T03:24:33.457Z,49.10
2018-07-31T03:25:33.464Z,49.10
2018-07-31T03:26:33.476Z,49.58
2018-07-31T03:27:33.485Z,49.49
2018-07-31T03:28:33.493Z,49.29
2018-07-31T03:29:33.501Z,49.87
2018-07-31T03:30:33.507Z,49.49
2018-07-31T03:31:33.516Z,49.00
2018-07-31T03:32:33.514Z,49.19
2018-07-31T03:33:33.548Z,49.39
2018-07-31T03:34:33.543Z,49.00
2018-07-31T03:35:33.547Z,49.58
2018-07-31T03:36:33.557Z,49.29
2018-07-31T03:37:33.576Z,49.87
2018-07-31T03:38:33.580Z,49.39
2018-07-31T03:39:33.579Z,49.29
2018-07-31T03:40:33.589Z,49.87
2018-07-31T03:41:33.614Z,50.07
2018-07-31T03:42:33.609Z,49.68
2018-07-31T03:43:33.610Z,49.97
2018-07-31T03:44:33.624Z,49.87
2018-07-31T03:45:33.644Z,49.29
2018-07-31T03:46:33.643Z,49.58
2018-07-31T03:47:33.646Z,50.16
2018-07-31T03:48:33.653Z,49.68
2018-07-31T03:49:33.660Z,50.26
2018-07-31T03:50:33.675Z,50.07
2018-07-31T03:51:33.681Z,50.36
2018-07-31T03:52:33.684Z,50.53
2018-07-31T03:53:33.696Z,50.72
2018-07-31T03:54:33.704Z,51.69
2018-07-31T03:55:33.718Z,51.21
2018-07-31T03:56:33.717Z,51.50
2018-07-31T03:57:33.727Z,51.21
2018-07-31T03:58:33.737Z,51.01
2018-07-31T03:59:33.743Z,51.11
2018-07-31T04:00:33.756Z,51.31
2018-07-31T04:01:33.768Z,50.43
2018-07-31T04:02:33.770Z,50.82
2018-07-31T04:03:33.780Z,50.92
2018-07-31T04:04:33.794Z,50.46
2018-07-31T04:05:33.840Z,50.36
2018-07-31T04:06:33.806Z,50.07
2018-07-31T04:07:33.815Z,49.97
2018-07-31T04:08:33.820Z,50.26
2018-07-31T04:09:33.823Z,50.26
2018-07-31T04:10:33.832Z,49.77
2018-07-31T04:11:33.847Z,49.58
2018-07-31T04:12:33.863Z,49.77
2018-07-31T04:13:33.863Z,49.68
2018-07-31T04:14:33.873Z,49.68
2018-07-31T04:15:33.874Z,49.77
2018-07-31T04:16:33.888Z,50.16
2018-07-31T04:17:33.896Z,49.87
2018-07-31T04:18:33.900Z,49.77
2018-07-31T04:19:33.909Z,50.16
2018-07-31T04:20:33.920Z,49.85
2018-07-31T04:21:33.929Z,50.24
2018-07-31T04:22:33.934Z,50.04
2018-07-31T04:23:33.946Z,50.24
2018-07-31T04:24:33.963Z,50.43
2018-07-31T04:25:33.965Z,50.34
2018-07-31T04:26:33.966Z,50.82
2018-07-31T04:27:33.975Z,50.72
2018-07-31T04:28:33.984Z,51.11
2018-07-31T04:29:33.987Z,51.31
2018-07-31T04:30:34.001Z,51.31
2018-07-31T04:31:34.008Z,50.99
2018-07-31T04:32:34.029Z,51.09
2018-07-31T04:33:34.027Z,51.18
2018-07-31T04:34:34.032Z,51.09
2018-07-31T04:35:34.040Z,51.09
2018-07-31T04:36:34.053Z,51.28
2018-07-31T04:37:34.056Z,51.11
2018-07-31T04:38:34.063Z,51.21
2018-07-31T04:39:34.071Z,50.72
2018-07-31T04:40:34.077Z,50.34
2018-07-31T04:41:34.088Z,50.43
2018-07-31T04:42:34.095Z,50.53
2018-07-31T04:43:34.108Z,50.14
2018-07-31T04:44:34.151Z,50.04
2018-07-31T04:45:34.118Z,50.24
2018-07-31T04:46:34.130Z,49.66
2018-07-31T04:47:34.139Z,49.95
2018-07-31T04:48:34.143Z,50.04
2018-07-31T04:49:34.152Z,49.66
2018-07-31T04:50:34.157Z,49.17
2018-07-31T04:51:34.168Z,49.27
2018-07-31T04:52:34.173Z,49.07
2018-07-31T04:53:34.186Z,49.17
2018-07-31T04:54:34.193Z,49.17
2018-07-31T04:55:34.205Z,49.27
2018-07-31T04:56:34.211Z,48.97
2018-07-31T04:57:34.221Z,48.80
2018-07-31T04:58:34.229Z,48.80
2018-07-31T04:59:34.230Z,48.90
2018-07-31T05:00:34.242Z,48.90
2018-07-31T05:01:34.251Z,48.52
2018-07-31T05:02:34.253Z,48.32
2018-07-31T05:03:34.270Z,48.42
2018-07-31T05:04:34.271Z,48.32
2018-07-31T05:05:34.280Z,48.32
2018-07-31T05:06:34.291Z,47.93
2018-07-31T05:07:34.300Z,48.03
2018-07-31T05:08:34.302Z,47.93
2018-07-31T05:09:34.319Z,48.05
2018-07-31T05:10:34.321Z,48.05
2018-07-31T05:11:34.333Z,47.64
2018-07-31T05:12:34.336Z,47.83
2018-07-31T05:13:34.346Z,47.86
2018-07-31T05:14:34.358Z,47.86
2018-07-31T05:15:34.363Z,47.57
2018-07-31T05:16:34.368Z,47.18
2018-07-31T05:17:34.427Z,47.08
2018-07-31T05:18:34.387Z,47.08
2018-07-31T05:19:34.394Z,46.98
2018-07-31T05:20:34.403Z,47.08
2018-07-31T05:21:34.414Z,46.98
2018-07-31T05:22:34.417Z,47.28
2018-07-31T05:23:34.426Z,46.79
2018-07-31T05:24:34.438Z,46.98
2018-07-31T05:25:34.445Z,47.08
2018-07-31T05:26:34.459Z,46.98
2018-07-31T05:27:34.462Z,46.98
2018-07-31T05:28:34.470Z,46.89
2018-07-31T05:29:34.477Z,47.08
2018-07-31T05:30:34.488Z,46.89
2018-07-31T05:31:34.499Z,47.08
2018-07-31T05:32:34.526Z,47.08
2018-07-31T05:33:34.515Z,46.89
2018-07-31T05:34:34.522Z,47.08
2018-07-31T05:35:34.530Z,46.60
2018-07-31T05:36:34.540Z,46.98
2018-07-31T05:37:34.545Z,46.91
2018-07-31T05:38:34.554Z,46.62
2018-07-31T05:39:34.607Z,46.04
2018-07-31T05:40:34.572Z,45.94
2018-07-31T05:41:34.578Z,45.65
2018-07-31T05:42:34.588Z,45.94
2018-07-31T05:43:34.595Z,45.65
2018-07-31T05:44:34.606Z,45.45
2018-07-31T05:45:34.616Z,45.65
2018-07-31T05:46:34.622Z,45.77
2018-07-31T05:47:34.627Z,45.28
2018-07-31T05:48:34.634Z,45.48
2018-07-31T05:49:34.641Z,45.48
2018-07-31T05:50:34.652Z,45.09
2018-07-31T05:51:34.661Z,45.28
2018-07-31T05:52:34.674Z,44.70
2018-07-31T05:53:34.677Z,45.18
2018-07-31T05:54:34.689Z,44.41
2018-07-31T05:55:34.695Z,44.21
2018-07-31T05:56:34.704Z,44.24
2018-07-31T05:57:34.717Z,44.04
2018-07-31T05:58:34.726Z,43.85
2018-07-31T05:59:34.732Z,43.65
2018-07-31T06:00:34.740Z,43.65
2018-07-31T06:01:34.750Z,44.06
2018-07-31T06:02:34.757Z,42.99
2018-07-31T06:03:34.832Z,44.06
2018-07-31T06:04:34.772Z,43.29
2018-07-31T06:05:34.780Z,43.09
2018-07-31T06:06:34.790Z,42.90
2018-07-31T06:07:34.802Z,43.09
2018-07-31T06:08:34.809Z,43.19
2018-07-31T06:09:34.841Z,43.29
2018-07-31T06:10:34.828Z,42.99
2018-07-31T06:11:34.841Z,43.09
2018-07-31T06:12:34.843Z,42.72
2018-07-31T06:13:34.858Z,42.43
2018-07-31T06:14:34.862Z,42.63
2018-07-31T06:15:34.871Z,42.43
2018-07-31T06:16:34.884Z,42.53
2018-07-31T06:17:34.888Z,42.14
2018-07-31T06:18:34.908Z,42.33
2018-07-31T06:19:34.909Z,42.14
2018-07-31T06:20:34.915Z,42.04
2018-07-31T06:21:34.923Z,41.77
2018-07-31T06:22:34.933Z,42.06
2018-07-31T06:23:34.943Z,42.06
2018-07-31T06:24:34.949Z,41.96
2018-07-31T06:25:35.009Z,41.96
2018-07-31T06:26:34.976Z,41.57
2018-07-31T06:27:34.981Z,41.57
2018-07-31T06:28:34.988Z,41.77
2018-07-31T06:29:35.000Z,41.57
2018-07-31T06:30:35.011Z,41.57
2018-07-31T06:31:35.013Z,41.57
2018-07-31T06:32:35.026Z,41.96
2018-07-31T06:33:35.040Z,41.86
2018-07-31T06:34:35.043Z,41.96
2018-07-31T06:35:35.058Z,41.96
2018-07-31T06:36:35.064Z,41.94
2018-07-31T06:37:35.080Z,42.24
2018-07-31T06:38:35.083Z,42.14
2018-07-31T06:39:35.096Z,42.14
2018-07-31T06:40:35.098Z,42.43
2018-07-31T06:41:35.115Z,42.53
2018-07-31T06:42:35.119Z,42.14
2018-07-31T06:43:35.236Z,42.63
2018-07-31T06:44:35.137Z,42.53
2018-07-31T06:45:35.147Z,42.72
2018-07-31T06:46:35.150Z,42.72
2018-07-31T06:47:35.162Z,42.43
2018-07-31T06:48:35.174Z,42.63
2018-07-31T06:49:35.179Z,42.63
2018-07-31T06:50:35.192Z,42.82
2018-07-31T06:51:35.196Z,42.43
2018-07-31T06:52:35.206Z,42.63
2018-07-31T06:53:35.218Z,42.90
2018-07-31T06:54:35.225Z,42.60
2018-07-31T06:55:35.237Z,43.01
2018-07-31T06:56:35.298Z,42.99
2018-07-31T06:57:35.256Z,43.19
2018-07-31T06:58:35.265Z,42.80
2018-07-31T06:59:35.272Z,43.09
2018-07-31T07:00:35.280Z,43.09
2018-07-31T07:01:35.331Z,43.19
2018-07-31T07:02:35.304Z,43.09
2018-07-31T07:03:35.305Z,43.09
2018-07-31T07:04:35.319Z,43.19
2018-07-31T07:05:35.325Z,42.90
2018-07-31T07:06:35.336Z,42.80
2018-07-31T07:07:35.349Z,42.63
2018-07-31T07:08:35.359Z,42.53
2018-07-31T07:09:35.369Z,42.53
2018-07-31T07:10:35.376Z,42.63
2018-07-31T07:11:35.389Z,42.63
2018-07-31T07:12:35.395Z,42.63
2018-07-31T07:13:35.406Z,42.53
2018-07-31T07:14:35.410Z,42.63
2018-07-31T07:15:35.440Z,42.50
2018-07-31T07:16:35.425Z,42.53
2018-07-31T07:17:35.447Z,42.43
2018-07-31T07:18:35.450Z,42.33
2018-07-31T07:19:35.458Z,42.43
2018-07-31T07:20:35.467Z,42.14
2018-07-31T07:21:35.473Z,42.43
2018-07-31T07:22:35.531Z,42.43
2018-07-31T07:23:35.494Z,41.94
2018-07-31T07:24:35.505Z,42.43
2018-07-31T07:25:35.511Z,42.14
2018-07-31T07:26:35.522Z,42.04
2018-07-31T07:27:35.530Z,42.24
2018-07-31T07:28:35.539Z,42.33
2018-07-31T07:29:35.619Z,42.33
2018-07-31T07:30:35.555Z,42.14
2018-07-31T07:31:35.568Z,42.04
2018-07-31T07:32:35.580Z,42.33
2018-07-31T07:33:35.627Z,42.24
2018-07-31T07:34:35.592Z,42.04
2018-07-31T07:35:35.662Z,42.24
2018-07-31T07:36:35.611Z,42.25
2018-07-31T07:37:35.617Z,41.86
2018-07-31T07:38:35.634Z,41.75
2018-07-31T07:39:35.643Z,41.86
2018-07-31T07:40:35.652Z,41.86
2018-07-31T07:41:35.656Z,41.85
2018-07-31T07:42:35.673Z,42.24
2018-07-31T07:43:35.675Z,41.85
2018-07-31T07:44:35.689Z,41.85
2018-07-31T07:45:35.704Z,41.77
2018-07-31T07:46:35.707Z,42.14
2018-07-31T07:47:35.715Z,41.96
2018-07-31T07:48:35.722Z,42.16
2018-07-31T07:49:35.794Z,41.96
2018-07-31T07:50:35.782Z,41.57
2018-07-31T07:51:35.753Z,41.67
2018-07-31T07:52:35.765Z,41.48
2018-07-31T07:53:35.776Z,41.67
2018-07-31T07:54:35.778Z,41.28
2018-07-31T07:55:35.790Z,41.19
2018-07-31T07:56:35.798Z,41.28
2018-07-31T07:57:35.810Z,41.19
2018-07-31T07:58:35.814Z,41.19
2018-07-31T07:59:35.825Z,41.60
2018-07-31T08:00:35.841Z,40.89
2018-07-31T08:01:35.845Z,41.30
2018-07-31T08:02:35.854Z,41.19
2018-07-31T08:03:35.864Z,41.11
2018-07-31T08:04:35.872Z,41.11
2018-07-31T08:05:35.900Z,40.91
2018-07-31T08:06:35.892Z,40.91
2018-07-31T08:07:35.912Z,40.81
2018-07-31T08:08:35.912Z,40.81
2018-07-31T08:09:35.920Z,40.62
2018-07-31T08:10:35.932Z,40.72
2018-07-31T08:11:35.942Z,40.81
2018-07-31T08:12:35.955Z,40.72
2018-07-31T08:13:35.961Z,40.62
2018-07-31T08:14:35.970Z,40.52
2018-07-31T08:15:35.981Z,40.64
2018-07-31T08:16:35.991Z,40.55
2018-07-31T08:17:35.998Z,40.55
2018-07-31T08:18:36.009Z,40.16
2018-07-31T08:19:36.015Z,40.35
2018-07-31T08:20:36.030Z,39.86
2018-07-31T08:21:36.038Z,40.25
2018-07-31T08:22:36.090Z,40.25
2018-07-31T08:23:36.054Z,39.76
2018-07-31T08:24:36.069Z,40.06
2018-07-31T08:25:36.077Z,40.06
2018-07-31T08:26:36.086Z,39.76
2018-07-31T08:27:36.097Z,39.76
2018-07-31T08:28:36.105Z,39.86
2018-07-31T08:29:36.113Z,39.86
2018-07-31T08:30:36.126Z,40.06
2018-07-31T08:31:36.132Z,40.25
2018-07-31T08:32:36.148Z,40.16
2018-07-31T08:33:36.183Z,40.25
2018-07-31T08:34:36.168Z,40.25
2018-07-31T08:35:36.170Z,40.06
2018-07-31T08:36:36.194Z,40.06
2018-07-31T08:37:36.187Z,39.96
2018-07-31T08:38:36.200Z,39.76
2018-07-31T08:39:36.214Z,39.67
2018-07-31T08:40:36.226Z,39.59
2018-07-31T08:41:36.230Z,39.59
2018-07-31T08:42:36.238Z,39.78
2018-07-31T08:43:36.256Z,39.78
2018-07-31T08:44:36.256Z,39.57
2018-07-31T08:45:36.268Z,39.76
2018-07-31T08:46:36.281Z,39.57
2018-07-31T08:47:36.294Z,39.96
2018-07-31T08:48:36.302Z,39.86
2018-07-31T08:49:36.307Z,40.06
2018-07-31T08:50:36.318Z,39.96
2018-07-31T08:51:36.333Z,40.06
2018-07-31T08:52:36.339Z,40.16
2018-07-31T08:53:36.345Z,40.16
2018-07-31T08:54:36.354Z,40.06
2018-07-31T08:55:36.418Z,40.17
2018-07-31T08:56:36.377Z,39.76
2018-07-31T08:57:36.385Z,39.69
2018-07-31T08:58:36.400Z,39.69
2018-07-31T08:59:36.407Z,39.78
2018-07-31T09:00:36.415Z,39.88
2018-07-31T09:01:36.425Z,39.69
2018-07-31T09:02:36.436Z,39.69
2018-07-31T09:03:36.449Z,39.57
2018-07-31T09:04:36.458Z,39.96
2018-07-31T09:05:36.468Z,39.78
2018-07-31T09:06:36.476Z,39.76
2018-07-31T09:07:36.483Z,39.69
2018-07-31T09:08:36.577Z,39.78
2018-07-31T09:09:36.503Z,39.69
2018-07-31T09:10:36.521Z,39.69
2018-07-31T09:11:36.524Z,39.59
2018-07-31T09:12:36.532Z,39.49
2018-07-31T09:13:36.546Z,39.88
2018-07-31T09:14:36.560Z,39.78
2018-07-31T09:15:36.569Z,39.69
2018-07-31T09:16:36.579Z,39.78
2018-07-31T09:17:36.618Z,39.59
2018-07-31T09:18:36.608Z,39.59
2018-07-31T09:19:36.608Z,39.59
2018-07-31T09:20:36.615Z,39.59
2018-07-31T09:21:36.622Z,39.98
2018-07-31T09:22:36.637Z,39.69
2018-07-31T09:23:36.649Z,39.78
2018-07-31T09:24:36.750Z,39.78
2018-07-31T09:25:36.673Z,39.78
2018-07-31T09:26:36.675Z,39.88
2018-07-31T09:27:36.685Z,39.67
2018-07-31T09:28:36.698Z,39.69
2018-07-31T09:29:36.707Z,39.76
2018-07-31T09:30:36.745Z,39.57
2018-07-31T09:31:36.725Z,39.69
2018-07-31T09:32:36.738Z,39.78
2018-07-31T09:33:36.744Z,39.88
2018-07-31T09:34:36.759Z,39.78
2018-07-31T09:35:36.766Z,39.69
2018-07-31T09:36:36.797Z,39.88
2018-07-31T09:37:36.783Z,39.39
2018-07-31T09:38:36.796Z,39.00
2018-07-31T09:39:36.809Z,39.39
2018-07-31T09:40:36.819Z,39.39
2018-07-31T09:41:36.824Z,39.51
2018-07-31T09:42:36.883Z,39.02
2018-07-31T09:43:36.850Z,38.82
2018-07-31T09:44:36.854Z,38.73
2018-07-31T09:45:36.871Z,38.73
2018-07-31T09:46:36.881Z,38.63
2018-07-31T09:47:36.889Z,38.43
2018-07-31T09:48:36.929Z,38.53
2018-07-31T09:49:36.909Z,38.63
2018-07-31T09:50:36.940Z,38.63
2018-07-31T09:51:36.926Z,38.63
2018-07-31T09:52:36.933Z,38.63
2018-07-31T09:53:36.946Z,38.53
2018-07-31T09:54:36.957Z,38.73
2018-07-31T09:55:36.967Z,38.63
2018-07-31T09:56:36.978Z,38.53
2018-07-31T09:57:36.991Z,38.43
2018-07-31T09:58:37.001Z,38.53
2018-07-31T09:59:37.013Z,38.43
2018-07-31T10:00:37.017Z,38.73
2018-07-31T10:01:37.025Z,38.63
2018-07-31T10:02:37.041Z,38.43
2018-07-31T10:03:37.051Z,38.43
2018-07-31T10:04:37.056Z,38.43
2018-07-31T10:05:37.068Z,38.53
2018-07-31T10:06:37.081Z,38.63
2018-07-31T10:07:37.088Z,38.53
2018-07-31T10:08:37.100Z,38.63
2018-07-31T10:09:37.109Z,38.63
2018-07-31T10:10:37.121Z,38.53
2018-07-31T10:11:37.131Z,38.73
2018-07-31T10:12:37.139Z,38.92
2018-07-31T10:13:37.154Z,38.92
2018-07-31T10:14:37.160Z,38.92
2018-07-31T10:15:37.173Z,38.92
2018-07-31T10:16:37.178Z,38.73
2018-07-31T10:17:37.199Z,38.82
2018-07-31T10:18:37.202Z,38.73
2018-07-31T10:19:37.215Z,38.73
2018-07-31T10:20:37.223Z,38.82
2018-07-31T10:21:37.235Z,38.63
2018-07-31T10:22:37.246Z,38.82
2018-07-31T10:23:37.257Z,38.53
2018-07-31T10:24:37.280Z,38.82
2018-07-31T10:25:37.271Z,38.53
2018-07-31T10:26:37.284Z,38.92
2018-07-31T10:27:37.300Z,38.92
2018-07-31T10:28:37.301Z,38.73
2018-07-31T10:29:37.318Z,38.92
2018-07-31T10:30:37.393Z,38.92
2018-07-31T10:31:37.336Z,38.82
2018-07-31T10:32:37.350Z,38.73
2018-07-31T10:33:37.359Z,38.63
2018-07-31T10:34:37.364Z,38.73
2018-07-31T10:35:37.374Z,38.73
2018-07-31T10:36:37.388Z,38.34
2018-07-31T10:37:37.451Z,38.53
2018-07-31T10:38:37.405Z,38.75
2018-07-31T10:39:37.419Z,38.55
2018-07-31T10:40:37.433Z,38.65
2018-07-31T10:41:37.437Z,38.65
2018-07-31T10:42:37.448Z,38.75
2018-07-31T10:43:37.460Z,38.75
2018-07-31T10:44:37.465Z,38.75
2018-07-31T10:45:37.478Z,38.65
2018-07-31T10:46:37.489Z,38.84
2018-07-31T10:47:37.501Z,38.65
2018-07-31T10:48:37.504Z,38.65
2018-07-31T10:49:37.520Z,38.55
2018-07-31T10:50:37.557Z,38.63
2018-07-31T10:51:37.541Z,38.53
2018-07-31T10:52:37.552Z,38.63
2018-07-31T10:53:37.562Z,38.75
2018-07-31T10:54:37.573Z,38.63
2018-07-31T10:55:37.582Z,38.63
2018-07-31T10:56:37.595Z,38.82
2018-07-31T10:57:37.605Z,38.53
2018-07-31T10:58:37.752Z,38.92
2018-07-31T10:59:37.636Z,38.82
2018-07-31T11:00:37.638Z,39.02
2018-07-31T11:01:37.644Z,38.73
2018-07-31T11:02:37.697Z,38.82
2018-07-31T11:03:37.664Z,38.73
2018-07-31T11:04:37.675Z,38.92
2018-07-31T11:05:37.688Z,38.82
2018-07-31T11:06:37.697Z,38.92
2018-07-31T11:07:37.707Z,38.73
2018-07-31T11:08:37.717Z,38.82
2018-07-31T11:09:37.728Z,38.82
2018-07-31T11:10:37.740Z,38.82
2018-07-31T11:11:37.753Z,38.92
2018-07-31T11:12:37.756Z,38.73
2018-07-31T11:13:37.767Z,38.82
2018-07-31T11:14:37.776Z,38.82
2018-07-31T11:15:37.786Z,38.92
2018-07-31T11:16:37.796Z,38.82
2018-07-31T11:17:37.813Z,38.73
2018-07-31T11:18:37.824Z,38.82
2018-07-31T11:19:37.832Z,38.92
2018-07-31T11:20:37.840Z,38.82
2018-07-31T11:21:37.847Z,39.04
2018-07-31T11:22:37.861Z,38.82
2018-07-31T11:23:37.875Z,38.75
2018-07-31T11:24:37.885Z,38.65
2018-07-31T11:25:37.892Z,38.75
2018-07-31T11:26:37.904Z,38.65
2018-07-31T11:27:37.914Z,38.55
2018-07-31T11:28:37.921Z,38.65
2018-07-31T11:29:37.935Z,38.65
2018-07-31T11:30:37.943Z,38.65
2018-07-31T11:31:37.952Z,38.65
2018-07-31T11:32:37.967Z,38.75
2018-07-31T11:33:37.972Z,38.75
2018-07-31T11:34:37.984Z,38.75
2018-07-31T11:35:37.996Z,38.75
2018-07-31T11:36:38.012Z,38.75
2018-07-31T11:37:38.019Z,38.65
2018-07-31T11:38:38.025Z,38.55
2018-07-31T11:39:38.037Z,38.65
2018-07-31T11:40:38.051Z,38.65
2018-07-31T11:41:38.061Z,38.45
2018-07-31T11:42:38.073Z,38.65
2018-07-31T11:43:38.084Z,38.65
2018-07-31T11:44:38.089Z,38.65
2018-07-31T11:45:38.099Z,38.65
2018-07-31T11:46:38.109Z,38.65
2018-07-31T11:47:38.117Z,38.55
2018-07-31T11:48:38.130Z,38.75
2018-07-31T11:49:38.161Z,38.65
2018-07-31T11:50:38.154Z,38.45
2018-07-31T11:51:38.166Z,38.55
2018-07-31T11:52:38.170Z,38.55
2018-07-31T11:53:38.188Z,38.65
2018-07-31T11:54:38.197Z,38.65
2018-07-31T11:55:38.207Z,38.55
2018-07-31T11:56:38.212Z,38.53
2018-07-31T11:57:38.221Z,38.45
2018-07-31T11:58:38.235Z,38.55
2018-07-31T11:59:38.242Z,38.35
2018-07-31T12:00:38.272Z,38.45
2018-07-31T12:01:38.267Z,38.84
2018-07-31T12:02:38.285Z,38.84
2018-07-31T12:03:38.289Z,38.65
2018-07-31T12:04:38.300Z,38.65
2018-07-31T12:05:38.312Z,38.45
2018-07-31T12:06:38.318Z,38.75
2018-07-31T12:07:38.328Z,38.75
2018-07-31T12:08:38.342Z,38.65
2018-07-31T12:09:38.353Z,38.75
2018-07-31T12:10:38.366Z,38.65
2018-07-31T12:11:38.431Z,38.75
2018-07-31T12:12:38.377Z,38.65
2018-07-31T12:13:38.393Z,38.65
2018-07-31T12:14:38.404Z,38.75
2018-07-31T12:15:38.428Z,38.84
2018-07-31T12:16:38.421Z,38.75
2018-07-31T12:17:38.426Z,38.55
2018-07-31T12:18:38.440Z,38.75
2018-07-31T12:19:38.454Z,38.75
2018-07-31T12:20:38.461Z,38.75
2018-07-31T12:21:38.475Z,38.84
2018-07-31T12:22:38.485Z,39.04
2018-07-31T12:23:38.497Z,38.94
2018-07-31T12:24:38.504Z,38.82
2018-07-31T12:25:38.512Z,39.04
2018-07-31T12:26:38.525Z,38.84
2018-07-31T12:27:38.536Z,38.82
2018-07-31T12:28:38.540Z,38.82
2018-07-31T12:29:38.562Z,38.84
2018-07-31T12:30:38.569Z,38.82
2018-07-31T12:31:38.579Z,38.94
2018-07-31T12:32:38.589Z,38.75
2018-07-31T12:33:38.598Z,38.82
2018-07-31T12:34:38.611Z,38.82
2018-07-31T12:35:38.622Z,38.73
2018-07-31T12:36:38.630Z,38.75
2018-07-31T12:37:38.643Z,38.75
2018-07-31T12:38:38.663Z,39.02
2018-07-31T12:39:38.669Z,38.75
2018-07-31T12:40:38.671Z,38.73
2018-07-31T12:41:38.680Z,38.73
2018-07-31T12:42:38.691Z,38.75
2018-07-31T12:43:38.699Z,39.12
2018-07-31T12:44:38.716Z,39.02
2018-07-31T12:45:38.723Z,39.22
2018-07-31T12:46:38.735Z,39.12
2018-07-31T12:47:38.755Z,39.31
2018-07-31T12:48:38.757Z,39.02
2018-07-31T12:49:38.764Z,39.51
2018-07-31T12:50:38.774Z,39.31
2018-07-31T12:51:38.787Z,39.31
2018-07-31T12:52:38.795Z,39.31